sensor_id;sensor_type;location;lat;lon;timestamp;P1;durP1;ratioP1;P2;durP2;ratioP2
10029;SDS011;5055;52.054;8.524;2023-03-01T00:01:46;1.40;;;1.40;;
10029;SDS011;5055;52.054;8.524;2023-03-01T00:04:18;1.10;;;1.10;;
10029;SDS011;5055;52.054;8.524;2023-03-01T00:06:47;0.43;;;0.43;;
10029;SDS011;5055;52.054;8.524;2023-03-01T00:09:15;0.93;;;0.93;;
10029;SDS011;5055;52.054;8.524;2023-03-01T00:11:44;0.97;;;0.97;;
10029;SDS011;5055;52.054;8.524;2023-03-01T00:14:14;0.50;;;0.50;;
10029;SDS011;5055;52.054;8.524;2023-03-01T00:16:44;1.07;;;1.07;;
10029;SDS011;5055;52.054;8.524;2023-03-01T00:19:14;0.87;;;0.87;;
10029;SDS011;5055;52.054;8.524;2023-03-01T00:21:44;0.87;;;0.87;;
10029;SDS011;5055;52.054;8.524;2023-03-01T00:24:12;0.80;;;0.80;;
10029;SDS011;5055;52.054;8.524;2023-03-01T00:26:41;0.60;;;0.60;;
10029;SDS011;5055;52.054;8.524;2023-03-01T00:29:10;0.80;;;0.80;;
10029;SDS011;5055;52.054;8.524;2023-03-01T00:31:40;0.83;;;0.83;;
10029;SDS011;5055;52.054;8.524;2023-03-01T00:34:08;1.33;;;1.33;;
10029;SDS011;5055;52.054;8.524;2023-03-01T00:36:37;0.83;;;0.83;;
10029;SDS011;5055;52.054;8.524;2023-03-01T00:39:09;1.17;;;1.17;;
10029;SDS011;5055;52.054;8.524;2023-03-01T00:41:39;1.00;;;1.00;;
10029;SDS011;5055;52.054;8.524;2023-03-01T00:44:08;0.80;;;0.80;;
10029;SDS011;5055;52.054;8.524;2023-03-01T00:46:37;1.00;;;1.00;;
10029;SDS011;5055;52.054;8.524;2023-03-01T00:49:07;0.83;;;0.83;;
10029;SDS011;5055;52.054;8.524;2023-03-01T00:51:35;1.17;;;1.17;;
10029;SDS011;5055;52.054;8.524;2023-03-01T00:54:05;0.40;;;0.40;;
10029;SDS011;5055;52.054;8.524;2023-03-01T00:56:35;0.30;;;0.30;;
10029;SDS011;5055;52.054;8.524;2023-03-01T00:59:04;0.77;;;0.77;;
10029;SDS011;5055;52.054;8.524;2023-03-01T01:01:32;0.90;;;0.90;;
10029;SDS011;5055;52.054;8.524;2023-03-01T01:04:03;0.97;;;0.97;;
10029;SDS011;5055;52.054;8.524;2023-03-01T01:06:33;1.17;;;1.17;;
10029;SDS011;5055;52.054;8.524;2023-03-01T01:09:04;1.00;;;1.00;;
10029;SDS011;5055;52.054;8.524;2023-03-01T01:11:33;0.53;;;0.53;;
10029;SDS011;5055;52.054;8.524;2023-03-01T01:14:02;0.93;;;0.93;;
10029;SDS011;5055;52.054;8.524;2023-03-01T01:16:31;1.00;;;1.00;;
10029;SDS011;5055;52.054;8.524;2023-03-01T01:19:00;0.90;;;0.90;;
10029;SDS011;5055;52.054;8.524;2023-03-01T01:21:30;0.97;;;0.97;;
10029;SDS011;5055;52.054;8.524;2023-03-01T01:23:59;1.00;;;1.00;;
10029;SDS011;5055;52.054;8.524;2023-03-01T01:26:28;0.80;;;0.80;;
10029;SDS011;5055;52.054;8.524;2023-03-01T01:28:59;0.77;;;0.77;;
10029;SDS011;5055;52.054;8.524;2023-03-01T01:31:28;0.93;;;0.93;;
10029;SDS011;5055;52.054;8.524;2023-03-01T01:33:58;0.80;;;0.80;;
10029;SDS011;5055;52.054;8.524;2023-03-01T01:36:29;0.60;;;0.60;;
10029;SDS011;5055;52.054;8.524;2023-03-01T01:38:59;0.60;;;0.60;;
10029;SDS011;5055;52.054;8.524;2023-03-01T01:41:28;1.27;;;1.27;;
10029;SDS011;5055;52.054;8.524;2023-03-01T01:44:10;0.93;;;0.93;;
10029;SDS011;5055;52.054;8.524;2023-03-01T01:46:45;0.70;;;0.70;;
10029;SDS011;5055;52.054;8.524;2023-03-01T01:49:17;1.20;;;1.20;;
10029;SDS011;5055;52.054;8.524;2023-03-01T01:51:54;0.97;;;0.97;;
10029;SDS011;5055;52.054;8.524;2023-03-01T01:54:28;0.60;;;0.60;;
10029;SDS011;5055;52.054;8.524;2023-03-01T01:57:02;0.97;;;0.97;;
10029;SDS011;5055;52.054;8.524;2023-03-01T01:59:34;0.70;;;0.70;;
10029;SDS011;5055;52.054;8.524;2023-03-01T02:02:04;0.57;;;0.57;;
10029;SDS011;5055;52.054;8.524;2023-03-01T02:04:33;0.70;;;0.70;;
10029;SDS011;5055;52.054;8.524;2023-03-01T02:07:03;0.80;;;0.80;;
10029;SDS011;5055;52.054;8.524;2023-03-01T02:09:36;1.00;;;1.00;;
10029;SDS011;5055;52.054;8.524;2023-03-01T02:12:05;0.90;;;0.90;;
10029;SDS011;5055;52.054;8.524;2023-03-01T02:14:33;1.10;;;1.10;;
10029;SDS011;5055;52.054;8.524;2023-03-01T02:17:02;0.83;;;0.83;;
10029;SDS011;5055;52.054;8.524;2023-03-01T02:19:40;1.13;;;1.13;;
10029;SDS011;5055;52.054;8.524;2023-03-01T02:22:18;0.80;;;0.80;;
10029;SDS011;5055;52.054;8.524;2023-03-01T02:24:54;1.20;;;1.20;;
10029;SDS011;5055;52.054;8.524;2023-03-01T02:27:32;0.70;;;0.70;;
10029;SDS011;5055;52.054;8.524;2023-03-01T02:30:07;1.03;;;1.03;;
10029;SDS011;5055;52.054;8.524;2023-03-01T02:32:39;0.83;;;0.83;;
10029;SDS011;5055;52.054;8.524;2023-03-01T02:35:08;1.00;;;1.00;;
10029;SDS011;5055;52.054;8.524;2023-03-01T02:37:39;0.80;;;0.80;;
10029;SDS011;5055;52.054;8.524;2023-03-01T02:40:11;0.80;;;0.80;;
10029;SDS011;5055;52.054;8.524;2023-03-01T02:42:45;1.00;;;1.00;;
10029;SDS011;5055;52.054;8.524;2023-03-01T02:45:19;1.20;;;1.20;;
10029;SDS011;5055;52.054;8.524;2023-03-01T02:47:49;1.07;;;1.07;;
10029;SDS011;5055;52.054;8.524;2023-03-01T02:50:38;0.63;;;0.63;;
10029;SDS011;5055;52.054;8.524;2023-03-01T02:53:15;1.10;;;1.10;;
10029;SDS011;5055;52.054;8.524;2023-03-01T02:55:48;1.03;;;1.03;;
10029;SDS011;5055;52.054;8.524;2023-03-01T02:58:18;0.97;;;0.97;;
10029;SDS011;5055;52.054;8.524;2023-03-01T03:00:48;1.03;;;1.03;;
10029;SDS011;5055;52.054;8.524;2023-03-01T03:03:16;1.20;;;1.20;;
10029;SDS011;5055;52.054;8.524;2023-03-01T03:05:47;0.90;;;0.90;;
10029;SDS011;5055;52.054;8.524;2023-03-01T03:08:16;0.70;;;0.70;;
10029;SDS011;5055;52.054;8.524;2023-03-01T03:10:50;0.80;;;0.80;;
10029;SDS011;5055;52.054;8.524;2023-03-01T03:13:19;0.60;;;0.60;;
10029;SDS011;5055;52.054;8.524;2023-03-01T03:15:50;0.77;;;0.77;;
10029;SDS011;5055;52.054;8.524;2023-03-01T03:18:21;1.17;;;1.17;;
10029;SDS011;5055;52.054;8.524;2023-03-01T03:20:58;0.70;;;0.70;;
10029;SDS011;5055;52.054;8.524;2023-03-01T03:23:26;0.97;;;0.97;;
10029;SDS011;5055;52.054;8.524;2023-03-01T03:25:56;1.00;;;1.00;;
10029;SDS011;5055;52.054;8.524;2023-03-01T03:28:24;1.20;;;1.20;;
10029;SDS011;5055;52.054;8.524;2023-03-01T03:30:54;0.87;;;0.87;;
10029;SDS011;5055;52.054;8.524;2023-03-01T03:33:22;1.27;;;1.27;;
10029;SDS011;5055;52.054;8.524;2023-03-01T03:35:51;0.73;;;0.73;;
10029;SDS011;5055;52.054;8.524;2023-03-01T03:38:20;0.60;;;0.60;;
10029;SDS011;5055;52.054;8.524;2023-03-01T03:40:49;0.97;;;0.97;;
10029;SDS011;5055;52.054;8.524;2023-03-01T03:43:20;1.10;;;1.10;;
10029;SDS011;5055;52.054;8.524;2023-03-01T03:45:50;1.60;;;1.60;;
10029;SDS011;5055;52.054;8.524;2023-03-01T03:48:20;0.47;;;0.47;;
10029;SDS011;5055;52.054;8.524;2023-03-01T03:50:50;0.37;;;0.37;;
10029;SDS011;5055;52.054;8.524;2023-03-01T03:53:23;0.40;;;0.40;;
10029;SDS011;5055;52.054;8.524;2023-03-01T03:55:53;0.77;;;0.77;;
10029;SDS011;5055;52.054;8.524;2023-03-01T03:58:23;1.10;;;1.10;;
10029;SDS011;5055;52.054;8.524;2023-03-01T04:00:53;1.10;;;1.10;;
10029;SDS011;5055;52.054;8.524;2023-03-01T04:03:25;1.27;;;1.27;;
10029;SDS011;5055;52.054;8.524;2023-03-01T04:05:56;0.53;;;0.53;;
10029;SDS011;5055;52.054;8.524;2023-03-01T04:08:25;1.27;;;1.27;;
10029;SDS011;5055;52.054;8.524;2023-03-01T04:11:00;0.70;;;0.70;;
10029;SDS011;5055;52.054;8.524;2023-03-01T04:13:51;0.70;;;0.70;;
10029;SDS011;5055;52.054;8.524;2023-03-01T04:16:22;0.80;;;0.80;;
10029;SDS011;5055;52.054;8.524;2023-03-01T04:18:52;0.80;;;0.80;;
10029;SDS011;5055;52.054;8.524;2023-03-01T04:21:21;0.80;;;0.80;;
10029;SDS011;5055;52.054;8.524;2023-03-01T04:23:49;0.67;;;0.67;;
10029;SDS011;5055;52.054;8.524;2023-03-01T04:26:19;0.80;;;0.80;;
10029;SDS011;5055;52.054;8.524;2023-03-01T04:28:47;0.73;;;0.73;;
10029;SDS011;5055;52.054;8.524;2023-03-01T04:31:17;0.90;;;0.90;;
10029;SDS011;5055;52.054;8.524;2023-03-01T04:33:48;0.90;;;0.90;;
10029;SDS011;5055;52.054;8.524;2023-03-01T04:36:21;1.30;;;1.30;;
10029;SDS011;5055;52.054;8.524;2023-03-01T04:38:51;0.60;;;0.60;;
10029;SDS011;5055;52.054;8.524;2023-03-01T04:41:20;0.67;;;0.67;;
10029;SDS011;5055;52.054;8.524;2023-03-01T04:43:55;0.73;;;0.73;;
10029;SDS011;5055;52.054;8.524;2023-03-01T04:46:26;1.10;;;1.10;;
10029;SDS011;5055;52.054;8.524;2023-03-01T04:48:56;0.80;;;0.80;;
10029;SDS011;5055;52.054;8.524;2023-03-01T04:51:26;0.90;;;0.90;;
10029;SDS011;5055;52.054;8.524;2023-03-01T04:53:54;1.00;;;1.00;;
10029;SDS011;5055;52.054;8.524;2023-03-01T04:56:24;0.80;;;0.80;;
10029;SDS011;5055;52.054;8.524;2023-03-01T04:58:52;1.10;;;1.10;;
10029;SDS011;5055;52.054;8.524;2023-03-01T05:01:21;0.93;;;0.93;;
10029;SDS011;5055;52.054;8.524;2023-03-01T05:03:56;0.90;;;0.90;;
10029;SDS011;5055;52.054;8.524;2023-03-01T05:06:31;1.40;;;1.40;;
10029;SDS011;5055;52.054;8.524;2023-03-01T05:09:00;0.90;;;0.90;;
10029;SDS011;5055;52.054;8.524;2023-03-01T05:11:28;1.13;;;1.13;;
10029;SDS011;5055;52.054;8.524;2023-03-01T05:14:00;1.00;;;1.00;;
10029;SDS011;5055;52.054;8.524;2023-03-01T05:16:29;1.30;;;1.30;;
10029;SDS011;5055;52.054;8.524;2023-03-01T05:19:07;1.50;;;1.50;;
10029;SDS011;5055;52.054;8.524;2023-03-01T05:21:43;0.90;;;0.90;;
10029;SDS011;5055;52.054;8.524;2023-03-01T05:24:31;1.50;;;1.50;;
10029;SDS011;5055;52.054;8.524;2023-03-01T05:27:01;0.90;;;0.90;;
10029;SDS011;5055;52.054;8.524;2023-03-01T05:29:30;1.23;;;1.23;;
10029;SDS011;5055;52.054;8.524;2023-03-01T05:32:01;1.23;;;1.23;;
10029;SDS011;5055;52.054;8.524;2023-03-01T05:34:31;0.57;;;0.57;;
10029;SDS011;5055;52.054;8.524;2023-03-01T05:37:03;1.10;;;1.10;;
10029;SDS011;5055;52.054;8.524;2023-03-01T05:39:31;1.10;;;1.10;;
10029;SDS011;5055;52.054;8.524;2023-03-01T05:42:02;1.17;;;1.17;;
10029;SDS011;5055;52.054;8.524;2023-03-01T05:44:34;1.23;;;1.23;;
10029;SDS011;5055;52.054;8.524;2023-03-01T05:47:03;0.80;;;0.80;;
10029;SDS011;5055;52.054;8.524;2023-03-01T05:49:34;0.40;;;0.40;;
10029;SDS011;5055;52.054;8.524;2023-03-01T05:52:06;1.30;;;1.30;;
10029;SDS011;5055;52.054;8.524;2023-03-01T05:54:35;0.80;;;0.80;;
10029;SDS011;5055;52.054;8.524;2023-03-01T05:57:04;1.07;;;1.07;;
10029;SDS011;5055;52.054;8.524;2023-03-01T05:59:32;1.33;;;1.33;;
10029;SDS011;5055;52.054;8.524;2023-03-01T06:02:01;1.20;;;1.20;;
10029;SDS011;5055;52.054;8.524;2023-03-01T06:04:29;0.80;;;0.80;;
10029;SDS011;5055;52.054;8.524;2023-03-01T06:06:58;0.90;;;0.90;;
10029;SDS011;5055;52.054;8.524;2023-03-01T06:09:28;0.90;;;0.90;;
10029;SDS011;5055;52.054;8.524;2023-03-01T06:11:56;0.77;;;0.77;;
10029;SDS011;5055;52.054;8.524;2023-03-01T06:14:24;0.90;;;0.90;;
10029;SDS011;5055;52.054;8.524;2023-03-01T06:16:53;0.90;;;0.90;;
10029;SDS011;5055;52.054;8.524;2023-03-01T06:19:22;0.90;;;0.90;;
10029;SDS011;5055;52.054;8.524;2023-03-01T06:21:56;0.70;;;0.70;;
10029;SDS011;5055;52.054;8.524;2023-03-01T06:24:25;1.17;;;1.17;;
10029;SDS011;5055;52.054;8.524;2023-03-01T06:26:56;1.03;;;1.03;;
10029;SDS011;5055;52.054;8.524;2023-03-01T06:29:25;0.80;;;0.80;;
10029;SDS011;5055;52.054;8.524;2023-03-01T06:31:54;1.17;;;1.17;;
10029;SDS011;5055;52.054;8.524;2023-03-01T06:34:22;1.10;;;1.10;;
10029;SDS011;5055;52.054;8.524;2023-03-01T06:36:50;0.90;;;0.90;;
10029;SDS011;5055;52.054;8.524;2023-03-01T06:39:19;0.53;;;0.53;;
10029;SDS011;5055;52.054;8.524;2023-03-01T06:41:47;1.00;;;1.00;;
10029;SDS011;5055;52.054;8.524;2023-03-01T06:44:17;0.80;;;0.80;;
10029;SDS011;5055;52.054;8.524;2023-03-01T06:46:45;0.93;;;0.93;;
10029;SDS011;5055;52.054;8.524;2023-03-01T06:49:14;0.83;;;0.83;;
10029;SDS011;5055;52.054;8.524;2023-03-01T06:51:44;0.80;;;0.80;;
10029;SDS011;5055;52.054;8.524;2023-03-01T06:54:12;0.70;;;0.70;;
10029;SDS011;5055;52.054;8.524;2023-03-01T06:56:41;0.50;;;0.50;;
10029;SDS011;5055;52.054;8.524;2023-03-01T06:59:09;1.13;;;1.13;;
10029;SDS011;5055;52.054;8.524;2023-03-01T07:01:39;1.10;;;1.10;;
10029;SDS011;5055;52.054;8.524;2023-03-01T07:04:08;0.97;;;0.97;;
10029;SDS011;5055;52.054;8.524;2023-03-01T07:06:36;0.77;;;0.77;;
10029;SDS011;5055;52.054;8.524;2023-03-01T07:09:05;0.97;;;0.97;;
10029;SDS011;5055;52.054;8.524;2023-03-01T07:11:33;0.80;;;0.80;;
10029;SDS011;5055;52.054;8.524;2023-03-01T07:14:02;0.77;;;0.77;;
10029;SDS011;5055;52.054;8.524;2023-03-01T07:16:30;0.60;;;0.60;;
10029;SDS011;5055;52.054;8.524;2023-03-01T07:19:00;1.07;;;1.07;;
10029;SDS011;5055;52.054;8.524;2023-03-01T07:21:29;1.30;;;1.30;;
10029;SDS011;5055;52.054;8.524;2023-03-01T07:23:57;0.80;;;0.80;;
10029;SDS011;5055;52.054;8.524;2023-03-01T07:26:26;0.87;;;0.87;;
10029;SDS011;5055;52.054;8.524;2023-03-01T07:28:55;0.80;;;0.80;;
10029;SDS011;5055;52.054;8.524;2023-03-01T07:31:26;0.53;;;0.53;;
10029;SDS011;5055;52.054;8.524;2023-03-01T07:33:55;0.47;;;0.47;;
10029;SDS011;5055;52.054;8.524;2023-03-01T07:36:25;0.70;;;0.70;;
10029;SDS011;5055;52.054;8.524;2023-03-01T07:38:53;0.70;;;0.70;;
10029;SDS011;5055;52.054;8.524;2023-03-01T07:41:22;1.03;;;1.03;;
10029;SDS011;5055;52.054;8.524;2023-03-01T07:43:51;0.57;;;0.57;;
10029;SDS011;5055;52.054;8.524;2023-03-01T07:46:19;0.43;;;0.43;;
10029;SDS011;5055;52.054;8.524;2023-03-01T07:48:48;0.80;;;0.80;;
10029;SDS011;5055;52.054;8.524;2023-03-01T07:51:16;0.80;;;0.80;;
10029;SDS011;5055;52.054;8.524;2023-03-01T07:53:48;0.60;;;0.60;;
10029;SDS011;5055;52.054;8.524;2023-03-01T07:56:16;0.50;;;0.50;;
10029;SDS011;5055;52.054;8.524;2023-03-01T07:58:45;0.57;;;0.57;;
10029;SDS011;5055;52.054;8.524;2023-03-01T08:01:17;0.70;;;0.70;;
10029;SDS011;5055;52.054;8.524;2023-03-01T08:03:46;0.40;;;0.40;;
10029;SDS011;5055;52.054;8.524;2023-03-01T08:06:16;0.40;;;0.40;;
10029;SDS011;5055;52.054;8.524;2023-03-01T08:08:45;0.50;;;0.50;;
10029;SDS011;5055;52.054;8.524;2023-03-01T08:11:15;0.80;;;0.80;;
10029;SDS011;5055;52.054;8.524;2023-03-01T08:13:44;0.50;;;0.50;;
10029;SDS011;5055;52.054;8.524;2023-03-01T08:16:18;0.40;;;0.40;;
10029;SDS011;5055;52.054;8.524;2023-03-01T08:18:48;0.70;;;0.70;;
10029;SDS011;5055;52.054;8.524;2023-03-01T08:21:17;0.73;;;0.73;;
10029;SDS011;5055;52.054;8.524;2023-03-01T08:23:45;0.50;;;0.50;;
10029;SDS011;5055;52.054;8.524;2023-03-01T08:26:16;0.37;;;0.37;;
10029;SDS011;5055;52.054;8.524;2023-03-01T08:28:46;0.40;;;0.40;;
10029;SDS011;5055;52.054;8.524;2023-03-01T08:31:17;0.30;;;0.30;;
10029;SDS011;5055;52.054;8.524;2023-03-01T08:33:51;0.40;;;0.40;;
10029;SDS011;5055;52.054;8.524;2023-03-01T08:36:22;0.30;;;0.30;;
10029;SDS011;5055;52.054;8.524;2023-03-01T08:38:51;0.50;;;0.50;;
10029;SDS011;5055;52.054;8.524;2023-03-01T08:41:22;0.60;;;0.60;;
10029;SDS011;5055;52.054;8.524;2023-03-01T08:43:51;0.60;;;0.60;;
10029;SDS011;5055;52.054;8.524;2023-03-01T08:46:25;0.70;;;0.70;;
10029;SDS011;5055;52.054;8.524;2023-03-01T08:48:54;0.50;;;0.50;;
10029;SDS011;5055;52.054;8.524;2023-03-01T08:51:24;0.53;;;0.53;;
10029;SDS011;5055;52.054;8.524;2023-03-01T08:53:53;0.57;;;0.57;;
10029;SDS011;5055;52.054;8.524;2023-03-01T08:56:23;0.50;;;0.50;;
10029;SDS011;5055;52.054;8.524;2023-03-01T08:58:52;0.50;;;0.50;;
10029;SDS011;5055;52.054;8.524;2023-03-01T09:01:20;0.60;;;0.60;;
10029;SDS011;5055;52.054;8.524;2023-03-01T09:03:48;0.33;;;0.33;;
10029;SDS011;5055;52.054;8.524;2023-03-01T09:06:17;0.30;;;0.30;;
10029;SDS011;5055;52.054;8.524;2023-03-01T09:08:46;0.60;;;0.60;;
10029;SDS011;5055;52.054;8.524;2023-03-01T09:11:16;0.40;;;0.40;;
10029;SDS011;5055;52.054;8.524;2023-03-01T09:13:48;0.40;;;0.40;;
10029;SDS011;5055;52.054;8.524;2023-03-01T09:16:18;0.50;;;0.50;;
10029;SDS011;5055;52.054;8.524;2023-03-01T09:18:48;0.50;;;0.50;;
10029;SDS011;5055;52.054;8.524;2023-03-01T09:21:18;0.40;;;0.40;;
10029;SDS011;5055;52.054;8.524;2023-03-01T09:24:05;0.37;;;0.37;;
10029;SDS011;5055;52.054;8.524;2023-03-01T09:26:34;0.43;;;0.43;;
10029;SDS011;5055;52.054;8.524;2023-03-01T09:29:04;0.40;;;0.40;;
10029;SDS011;5055;52.054;8.524;2023-03-01T09:31:33;0.30;;;0.30;;
10029;SDS011;5055;52.054;8.524;2023-03-01T09:34:02;0.50;;;0.50;;
10029;SDS011;5055;52.054;8.524;2023-03-01T09:36:30;0.50;;;0.50;;
10029;SDS011;5055;52.054;8.524;2023-03-01T09:39:00;0.50;;;0.50;;
10029;SDS011;5055;52.054;8.524;2023-03-01T09:41:36;0.33;;;0.33;;
10029;SDS011;5055;52.054;8.524;2023-03-01T09:44:15;0.30;;;0.30;;
10029;SDS011;5055;52.054;8.524;2023-03-01T09:46:52;0.30;;;0.30;;
10029;SDS011;5055;52.054;8.524;2023-03-01T09:49:22;0.40;;;0.40;;
10029;SDS011;5055;52.054;8.524;2023-03-01T09:51:54;0.33;;;0.33;;
10029;SDS011;5055;52.054;8.524;2023-03-01T09:54:26;0.40;;;0.40;;
10029;SDS011;5055;52.054;8.524;2023-03-01T09:57:12;0.30;;;0.30;;
10029;SDS011;5055;52.054;8.524;2023-03-01T09:59:55;0.30;;;0.30;;
10029;SDS011;5055;52.054;8.524;2023-03-01T10:02:57;0.50;;;0.50;;
10029;SDS011;5055;52.054;8.524;2023-03-01T10:05:34;0.30;;;0.30;;
10029;SDS011;5055;52.054;8.524;2023-03-01T10:11:02;0.40;;;0.40;;
10029;SDS011;5055;52.054;8.524;2023-03-01T10:13:33;0.40;;;0.40;;
10029;SDS011;5055;52.054;8.524;2023-03-01T10:16:11;0.30;;;0.30;;
10029;SDS011;5055;52.054;8.524;2023-03-01T10:18:45;0.40;;;0.40;;
10029;SDS011;5055;52.054;8.524;2023-03-01T10:21:19;0.30;;;0.30;;
10029;SDS011;5055;52.054;8.524;2023-03-01T10:23:49;0.40;;;0.40;;
10029;SDS011;5055;52.054;8.524;2023-03-01T10:26:25;0.40;;;0.40;;
10029;SDS011;5055;52.054;8.524;2023-03-01T10:29:04;0.30;;;0.30;;
10029;SDS011;5055;52.054;8.524;2023-03-01T10:31:39;0.30;;;0.30;;
10029;SDS011;5055;52.054;8.524;2023-03-01T10:34:13;0.30;;;0.30;;
10029;SDS011;5055;52.054;8.524;2023-03-01T10:36:47;0.33;;;0.33;;
10029;SDS011;5055;52.054;8.524;2023-03-01T10:39:17;0.30;;;0.30;;
10029;SDS011;5055;52.054;8.524;2023-03-01T10:42:00;0.30;;;0.30;;
10029;SDS011;5055;52.054;8.524;2023-03-01T10:44:41;0.40;;;0.40;;
10029;SDS011;5055;52.054;8.524;2023-03-01T10:47:14;0.40;;;0.40;;
10029;SDS011;5055;52.054;8.524;2023-03-01T10:52:33;0.40;;;0.40;;
10029;SDS011;5055;52.054;8.524;2023-03-01T10:55:04;0.30;;;0.30;;
10029;SDS011;5055;52.054;8.524;2023-03-01T10:57:54;0.30;;;0.30;;
10029;SDS011;5055;52.054;8.524;2023-03-01T11:00:45;0.30;;;0.30;;
10029;SDS011;5055;52.054;8.524;2023-03-01T11:03:18;0.40;;;0.40;;
10029;SDS011;5055;52.054;8.524;2023-03-01T11:05:51;0.30;;;0.30;;
10029;SDS011;5055;52.054;8.524;2023-03-01T11:08:31;0.40;;;0.40;;
10029;SDS011;5055;52.054;8.524;2023-03-01T11:11:20;0.30;;;0.30;;
10029;SDS011;5055;52.054;8.524;2023-03-01T11:13:55;0.30;;;0.30;;
10029;SDS011;5055;52.054;8.524;2023-03-01T11:16:27;0.30;;;0.30;;
10029;SDS011;5055;52.054;8.524;2023-03-01T11:19:01;0.30;;;0.30;;
10029;SDS011;5055;52.054;8.524;2023-03-01T11:21:46;0.30;;;0.30;;
10029;SDS011;5055;52.054;8.524;2023-03-01T11:24:20;0.50;;;0.50;;
10029;SDS011;5055;52.054;8.524;2023-03-01T11:26:54;0.30;;;0.30;;
10029;SDS011;5055;52.054;8.524;2023-03-01T11:29:26;0.33;;;0.33;;
10029;SDS011;5055;52.054;8.524;2023-03-01T11:32:13;0.30;;;0.30;;
10029;SDS011;5055;52.054;8.524;2023-03-01T11:34:45;0.30;;;0.30;;
10029;SDS011;5055;52.054;8.524;2023-03-01T11:37:21;0.30;;;0.30;;
10029;SDS011;5055;52.054;8.524;2023-03-01T11:39:58;0.30;;;0.30;;
10029;SDS011;5055;52.054;8.524;2023-03-01T11:42:38;0.30;;;0.30;;
10029;SDS011;5055;52.054;8.524;2023-03-01T11:45:14;0.30;;;0.30;;
10029;SDS011;5055;52.054;8.524;2023-03-01T11:50:38;0.40;;;0.40;;
10029;SDS011;5055;52.054;8.524;2023-03-01T11:53:23;0.40;;;0.40;;
10029;SDS011;5055;52.054;8.524;2023-03-01T11:56:05;0.40;;;0.40;;
10029;SDS011;5055;52.054;8.524;2023-03-01T11:58:47;0.40;;;0.40;;
10029;SDS011;5055;52.054;8.524;2023-03-01T12:01:32;0.50;;;0.50;;
10029;SDS011;5055;52.054;8.524;2023-03-01T12:07:29;0.50;;;0.50;;
10029;SDS011;5055;52.054;8.524;2023-03-01T12:10:18;0.40;;;0.40;;
10029;SDS011;5055;52.054;8.524;2023-03-01T12:18:57;0.40;;;0.40;;
10029;SDS011;5055;52.054;8.524;2023-03-01T12:21:40;0.30;;;0.30;;
10029;SDS011;5055;52.054;8.524;2023-03-01T12:24:29;0.33;;;0.33;;
10029;SDS011;5055;52.054;8.524;2023-03-01T12:27:15;0.40;;;0.40;;
10029;SDS011;5055;52.054;8.524;2023-03-01T12:29:59;0.30;;;0.30;;
10029;SDS011;5055;52.054;8.524;2023-03-01T12:32:45;0.30;;;0.30;;
10029;SDS011;5055;52.054;8.524;2023-03-01T12:38:15;0.43;;;0.43;;
10029;SDS011;5055;52.054;8.524;2023-03-01T12:44:09;0.30;;;0.30;;
10029;SDS011;5055;52.054;8.524;2023-03-01T12:46:49;0.30;;;0.30;;
10029;SDS011;5055;52.054;8.524;2023-03-01T12:49:30;0.40;;;0.40;;
10029;SDS011;5055;52.054;8.524;2023-03-01T12:52:03;0.20;;;0.20;;
10029;SDS011;5055;52.054;8.524;2023-03-01T12:54:37;0.33;;;0.33;;
10029;SDS011;5055;52.054;8.524;2023-03-01T12:57:08;0.27;;;0.27;;
10029;SDS011;5055;52.054;8.524;2023-03-01T12:59:42;0.30;;;0.30;;
10029;SDS011;5055;52.054;8.524;2023-03-01T13:02:21;0.30;;;0.30;;
10029;SDS011;5055;52.054;8.524;2023-03-01T13:04:54;0.30;;;0.30;;
10029;SDS011;5055;52.054;8.524;2023-03-01T13:07:35;0.20;;;0.20;;
10029;SDS011;5055;52.054;8.524;2023-03-01T13:10:16;0.20;;;0.20;;
10029;SDS011;5055;52.054;8.524;2023-03-01T13:12:53;0.20;;;0.20;;
10029;SDS011;5055;52.054;8.524;2023-03-01T13:15:31;0.20;;;0.20;;
10029;SDS011;5055;52.054;8.524;2023-03-01T13:18:02;0.20;;;0.20;;
10029;SDS011;5055;52.054;8.524;2023-03-01T13:20:52;0.20;;;0.20;;
10029;SDS011;5055;52.054;8.524;2023-03-01T13:23:24;0.20;;;0.20;;
10029;SDS011;5055;52.054;8.524;2023-03-01T13:26:02;0.20;;;0.20;;
10029;SDS011;5055;52.054;8.524;2023-03-01T13:28:45;0.20;;;0.20;;
10029;SDS011;5055;52.054;8.524;2023-03-01T13:34:41;0.20;;;0.20;;
10029;SDS011;5055;52.054;8.524;2023-03-01T13:37:22;0.20;;;0.20;;
10029;SDS011;5055;52.054;8.524;2023-03-01T13:40:02;0.20;;;0.20;;
10029;SDS011;5055;52.054;8.524;2023-03-01T13:42:53;0.20;;;0.20;;
10029;SDS011;5055;52.054;8.524;2023-03-01T13:45:37;0.20;;;0.20;;
10029;SDS011;5055;52.054;8.524;2023-03-01T13:48:11;0.20;;;0.20;;
10029;SDS011;5055;52.054;8.524;2023-03-01T13:50:45;0.20;;;0.20;;
10029;SDS011;5055;52.054;8.524;2023-03-01T13:53:18;0.10;;;0.10;;
10029;SDS011;5055;52.054;8.524;2023-03-01T13:55:48;0.10;;;0.10;;
10029;SDS011;5055;52.054;8.524;2023-03-01T13:58:24;0.10;;;0.10;;
10029;SDS011;5055;52.054;8.524;2023-03-01T14:00:59;0.20;;;0.20;;
10029;SDS011;5055;52.054;8.524;2023-03-01T14:03:29;0.20;;;0.20;;
10029;SDS011;5055;52.054;8.524;2023-03-01T14:06:00;0.20;;;0.20;;
10029;SDS011;5055;52.054;8.524;2023-03-01T14:08:42;0.10;;;0.10;;
10029;SDS011;5055;52.054;8.524;2023-03-01T14:11:23;0.17;;;0.17;;
10029;SDS011;5055;52.054;8.524;2023-03-01T14:14:15;0.20;;;0.20;;
10029;SDS011;5055;52.054;8.524;2023-03-01T14:16:58;0.20;;;0.20;;
10029;SDS011;5055;52.054;8.524;2023-03-01T14:19:36;0.20;;;0.20;;
10029;SDS011;5055;52.054;8.524;2023-03-01T14:22:10;0.20;;;0.20;;
10029;SDS011;5055;52.054;8.524;2023-03-01T14:24:44;0.20;;;0.20;;
10029;SDS011;5055;52.054;8.524;2023-03-01T14:27:16;0.17;;;0.17;;
10029;SDS011;5055;52.054;8.524;2023-03-01T14:29:53;0.20;;;0.20;;
10029;SDS011;5055;52.054;8.524;2023-03-01T14:32:25;0.20;;;0.20;;
10029;SDS011;5055;52.054;8.524;2023-03-01T14:34:56;0.20;;;0.20;;
10029;SDS011;5055;52.054;8.524;2023-03-01T14:37:26;0.20;;;0.20;;
10029;SDS011;5055;52.054;8.524;2023-03-01T14:39:56;0.20;;;0.20;;
10029;SDS011;5055;52.054;8.524;2023-03-01T14:42:27;0.20;;;0.20;;
10029;SDS011;5055;52.054;8.524;2023-03-01T14:44:58;0.20;;;0.20;;
10029;SDS011;5055;52.054;8.524;2023-03-01T14:47:30;0.20;;;0.20;;
10029;SDS011;5055;52.054;8.524;2023-03-01T14:50:00;0.20;;;0.20;;
10029;SDS011;5055;52.054;8.524;2023-03-01T14:52:33;0.10;;;0.10;;
10029;SDS011;5055;52.054;8.524;2023-03-01T14:55:05;0.20;;;0.20;;
10029;SDS011;5055;52.054;8.524;2023-03-01T14:57:42;0.20;;;0.20;;
10029;SDS011;5055;52.054;8.524;2023-03-01T15:00:15;0.17;;;0.17;;
10029;SDS011;5055;52.054;8.524;2023-03-01T15:02:48;0.10;;;0.10;;
10029;SDS011;5055;52.054;8.524;2023-03-01T15:05:22;0.10;;;0.10;;
10029;SDS011;5055;52.054;8.524;2023-03-01T15:07:53;0.20;;;0.20;;
10029;SDS011;5055;52.054;8.524;2023-03-01T15:10:25;0.20;;;0.20;;
10029;SDS011;5055;52.054;8.524;2023-03-01T15:12:54;0.13;;;0.13;;
10029;SDS011;5055;52.054;8.524;2023-03-01T15:15:31;0.20;;;0.20;;
10029;SDS011;5055;52.054;8.524;2023-03-01T15:18:04;0.20;;;0.20;;
10029;SDS011;5055;52.054;8.524;2023-03-01T15:20:34;0.20;;;0.20;;
10029;SDS011;5055;52.054;8.524;2023-03-01T15:23:03;0.20;;;0.20;;
10029;SDS011;5055;52.054;8.524;2023-03-01T15:25:32;0.20;;;0.20;;
10029;SDS011;5055;52.054;8.524;2023-03-01T15:28:01;0.20;;;0.20;;
10029;SDS011;5055;52.054;8.524;2023-03-01T15:30:31;0.20;;;0.20;;
10029;SDS011;5055;52.054;8.524;2023-03-01T15:33:18;0.20;;;0.20;;
10029;SDS011;5055;52.054;8.524;2023-03-01T15:35:55;0.20;;;0.20;;
10029;SDS011;5055;52.054;8.524;2023-03-01T15:38:35;0.20;;;0.20;;
10029;SDS011;5055;52.054;8.524;2023-03-01T15:41:24;0.20;;;0.20;;
10029;SDS011;5055;52.054;8.524;2023-03-01T15:43:54;0.20;;;0.20;;
10029;SDS011;5055;52.054;8.524;2023-03-01T15:46:24;0.20;;;0.20;;
10029;SDS011;5055;52.054;8.524;2023-03-01T15:48:58;0.20;;;0.20;;
10029;SDS011;5055;52.054;8.524;2023-03-01T15:51:28;0.30;;;0.30;;
10029;SDS011;5055;52.054;8.524;2023-03-01T15:54:03;0.30;;;0.30;;
10029;SDS011;5055;52.054;8.524;2023-03-01T15:56:33;0.30;;;0.30;;
10029;SDS011;5055;52.054;8.524;2023-03-01T15:59:03;0.30;;;0.30;;
10029;SDS011;5055;52.054;8.524;2023-03-01T16:01:33;0.40;;;0.40;;